sensor_id;sensor_type;location;lat;lon;timestamp;pressure;altitude;pressure_sealevel;temperature;humidity
23166;BME280;11751;42.700;24.170;2023-05-09T00:01:28;94227.50;;;13.61;nan
23166;BME280;11751;42.700;24.170;2023-05-09T00:03:56;94219.63;;;13.60;nan
23166;BME280;11751;42.700;24.170;2023-05-09T00:06:22;94227.81;;;13.72;nan
23166;BME280;11751;42.700;24.170;2023-05-09T00:08:47;94208.38;;;13.60;nan
23166;BME280;11751;42.700;24.170;2023-05-09T00:11:13;94225.63;;;13.64;nan
23166;BME280;11751;42.700;24.170;2023-05-09T00:13:38;94226.75;;;13.61;nan
23166;BME280;11751;42.700;24.170;2023-05-09T00:16:04;94222.34;;;13.74;nan
23166;BME280;11751;42.700;24.170;2023-05-09T00:18:30;94219.13;;;13.78;nan
23166;BME280;11751;42.700;24.170;2023-05-09T00:20:55;94221.09;;;13.68;nan
23166;BME280;11751;42.700;24.170;2023-05-09T00:23:22;94220.31;;;13.67;nan
23166;BME280;11751;42.700;24.170;2023-05-09T00:25:47;94227.13;;;13.65;nan
23166;BME280;11751;42.700;24.170;2023-05-09T00:28:12;94220.50;;;13.69;nan
23166;BME280;11751;42.700;24.170;2023-05-09T00:30:38;94225.22;;;13.67;nan
23166;BME280;11751;42.700;24.170;2023-05-09T00:33:03;94223.66;;;13.73;nan
23166;BME280;11751;42.700;24.170;2023-05-09T00:35:29;94221.38;;;13.79;nan
23166;BME280;11751;42.700;24.170;2023-05-09T00:37:56;94223.31;;;13.69;nan
23166;BME280;11751;42.700;24.170;2023-05-09T00:40:21;94223.59;;;13.57;nan
23166;BME280;11751;42.700;24.170;2023-05-09T00:42:47;94226.47;;;13.49;nan
23166;BME280;11751;42.700;24.170;2023-05-09T00:45:13;94231.06;;;13.37;nan
23166;BME280;11751;42.700;24.170;2023-05-09T00:47:38;94223.25;;;13.28;nan
23166;BME280;11751;42.700;24.170;2023-05-09T00:50:04;94234.63;;;13.06;nan
23166;BME280;11751;42.700;24.170;2023-05-09T00:52:32;94226.69;;;13.12;nan
23166;BME280;11751;42.700;24.170;2023-05-09T00:57:24;94234.63;;;13.06;nan
23166;BME280;11751;42.700;24.170;2023-05-09T00:59:49;94236.16;;;12.99;nan
23166;BME280;11751;42.700;24.170;2023-05-09T01:07:18;94222.75;;;13.15;nan
23166;BME280;11751;42.700;24.170;2023-05-09T01:15:33;94233.13;;;13.05;nan
23166;BME280;11751;42.700;24.170;2023-05-09T01:20:52;94232.75;;;13.01;nan
23166;BME280;11751;42.700;24.170;2023-05-09T01:23:46;94235.03;;;12.95;nan
23166;BME280;11751;42.700;24.170;2023-05-09T01:26:21;94233.63;;;12.72;nan
23166;BME280;11751;42.700;24.170;2023-05-09T01:31:40;94225.72;;;12.77;nan
23166;BME280;11751;42.700;24.170;2023-05-09T01:34:07;94235.13;;;12.65;nan
23166;BME280;11751;42.700;24.170;2023-05-09T01:36:36;94228.38;;;12.68;nan
23166;BME280;11751;42.700;24.170;2023-05-09T01:39:02;94230.84;;;12.64;nan
23166;BME280;11751;42.700;24.170;2023-05-09T01:41:30;94234.44;;;12.57;nan
23166;BME280;11751;42.700;24.170;2023-05-09T01:44:01;94231.72;;;12.74;nan
23166;BME280;11751;42.700;24.170;2023-05-09T01:46:28;94228.16;;;12.74;nan
23166;BME280;11751;42.700;24.170;2023-05-09T01:48:54;94237.16;;;12.72;nan
23166;BME280;11751;42.700;24.170;2023-05-09T01:51:20;94240.97;;;12.60;nan
23166;BME280;11751;42.700;24.170;2023-05-09T01:56:12;94238.94;;;12.53;nan
23166;BME280;11751;42.700;24.170;2023-05-09T01:58:39;94229.75;;;12.52;nan
23166;BME280;11751;42.700;24.170;2023-05-09T02:01:06;94225.50;;;12.36;nan
23166;BME280;11751;42.700;24.170;2023-05-09T02:03:33;94237.13;;;12.33;nan
23166;BME280;11751;42.700;24.170;2023-05-09T02:06:00;94236.50;;;12.49;nan
23166;BME280;11751;42.700;24.170;2023-05-09T02:08:28;94242.69;;;12.40;nan
23166;BME280;11751;42.700;24.170;2023-05-09T02:10:53;94236.34;;;12.32;nan
23166;BME280;11751;42.700;24.170;2023-05-09T02:13:19;94238.63;;;12.26;nan
23166;BME280;11751;42.700;24.170;2023-05-09T02:15:45;94250.19;;;12.30;nan
23166;BME280;11751;42.700;24.170;2023-05-09T02:18:11;94242.72;;;12.33;nan
23166;BME280;11751;42.700;24.170;2023-05-09T02:20:38;94252.44;;;12.39;nan
23166;BME280;11751;42.700;24.170;2023-05-09T02:23:03;94246.66;;;12.15;nan
23166;BME280;11751;42.700;24.170;2023-05-09T02:25:30;94248.75;;;12.14;nan
23166;BME280;11751;42.700;24.170;2023-05-09T02:27:57;94237.31;;;12.20;nan
23166;BME280;11751;42.700;24.170;2023-05-09T02:30:25;94249.84;;;12.19;nan
23166;BME280;11751;42.700;24.170;2023-05-09T02:32:55;94245.75;;;12.05;nan
23166;BME280;11751;42.700;24.170;2023-05-09T02:35:24;94256.63;;;12.08;nan
23166;BME280;11751;42.700;24.170;2023-05-09T02:37:52;94256.97;;;12.05;nan
23166;BME280;11751;42.700;24.170;2023-05-09T02:40:19;94245.00;;;12.04;nan
23166;BME280;11751;42.700;24.170;2023-05-09T02:42:46;94255.84;;;12.08;nan
23166;BME280;11751;42.700;24.170;2023-05-09T02:45:11;94257.16;;;12.14;nan
23166;BME280;11751;42.700;24.170;2023-05-09T02:47:37;94249.88;;;12.11;nan
23166;BME280;11751;42.700;24.170;2023-05-09T02:50:04;94252.13;;;12.05;nan
23166;BME280;11751;42.700;24.170;2023-05-09T02:52:30;94256.25;;;12.04;nan
23166;BME280;11751;42.700;24.170;2023-05-09T02:54:55;94246.91;;;11.94;nan
23166;BME280;11751;42.700;24.170;2023-05-09T02:57:21;94258.66;;;12.00;nan
23166;BME280;11751;42.700;24.170;2023-05-09T02:59:46;94247.09;;;11.96;nan
23166;BME280;11751;42.700;24.170;2023-05-09T03:02:12;94267.47;;;12.04;nan
23166;BME280;11751;42.700;24.170;2023-05-09T03:04:37;94266.00;;;11.89;nan
23166;BME280;11751;42.700;24.170;2023-05-09T03:11:54;94248.19;;;12.08;nan
23166;BME280;11751;42.700;24.170;2023-05-09T03:14:20;94269.72;;;12.13;nan
23166;BME280;11751;42.700;24.170;2023-05-09T03:16:45;94274.00;;;12.22;nan
23166;BME280;11751;42.700;24.170;2023-05-09T03:19:11;94282.44;;;12.22;nan
23166;BME280;11751;42.700;24.170;2023-05-09T03:21:36;94281.66;;;12.29;nan
23166;BME280;11751;42.700;24.170;2023-05-09T03:24:01;94270.66;;;12.08;nan
23166;BME280;11751;42.700;24.170;2023-05-09T03:26:29;94276.44;;;12.10;nan
23166;BME280;11751;42.700;24.170;2023-05-09T03:28:54;94283.53;;;12.11;nan
23166;BME280;11751;42.700;24.170;2023-05-09T03:31:20;94289.53;;;12.15;nan
23166;BME280;11751;42.700;24.170;2023-05-09T03:38:36;94292.53;;;12.17;nan
23166;BME280;11751;42.700;24.170;2023-05-09T03:41:01;94302.28;;;12.16;nan
23166;BME280;11751;42.700;24.170;2023-05-09T03:43:28;94305.28;;;12.11;nan
23166;BME280;11751;42.700;24.170;2023-05-09T03:48:18;94295.53;;;12.04;nan
23166;BME280;11751;42.700;24.170;2023-05-09T03:50:44;94303.19;;;12.11;nan
23166;BME280;11751;42.700;24.170;2023-05-09T03:53:09;94298.34;;;12.04;nan
23166;BME280;11751;42.700;24.170;2023-05-09T03:55:35;94314.44;;;12.11;nan
23166;BME280;11751;42.700;24.170;2023-05-09T03:58:00;94314.03;;;12.15;nan
23166;BME280;11751;42.700;24.170;2023-05-09T04:00:26;94307.69;;;12.14;nan
23166;BME280;11751;42.700;24.170;2023-05-09T04:02:52;94306.94;;;12.21;nan
23166;BME280;11751;42.700;24.170;2023-05-09T04:05:17;94324.72;;;12.24;nan
23166;BME280;11751;42.700;24.170;2023-05-09T04:07:43;94322.13;;;12.18;nan
23166;BME280;11751;42.700;24.170;2023-05-09T04:10:10;94317.22;;;12.11;nan
23166;BME280;11751;42.700;24.170;2023-05-09T04:12:36;94319.13;;;12.16;nan
23166;BME280;11751;42.700;24.170;2023-05-09T04:17:27;94319.84;;;12.24;nan
23166;BME280;11751;42.700;24.170;2023-05-09T04:19:52;94335.75;;;12.29;nan
23166;BME280;11751;42.700;24.170;2023-05-09T04:22:18;94324.53;;;12.14;nan
23166;BME280;11751;42.700;24.170;2023-05-09T04:24:43;94323.78;;;12.21;nan
23166;BME280;11751;42.700;24.170;2023-05-09T04:29:34;94323.03;;;12.28;nan
23166;BME280;11751;42.700;24.170;2023-05-09T04:32:00;94323.41;;;12.32;nan
23166;BME280;11751;42.700;24.170;2023-05-09T04:34:26;94312.34;;;12.34;nan
23166;BME280;11751;42.700;24.170;2023-05-09T04:36:52;94320.41;;;12.38;nan
23166;BME280;11751;42.700;24.170;2023-05-09T04:39:18;94314.19;;;12.47;nan
23166;BME280;11751;42.700;24.170;2023-05-09T04:41:44;94322.06;;;12.56;nan
23166;BME280;11751;42.700;24.170;2023-05-09T04:44:12;94328.63;;;12.51;nan
23166;BME280;11751;42.700;24.170;2023-05-09T04:46:37;94325.44;;;12.62;nan
23166;BME280;11751;42.700;24.170;2023-05-09T04:51:28;94326.50;;;12.81;nan
23166;BME280;11751;42.700;24.170;2023-05-09T04:53:53;94329.50;;;12.83;nan
23166;BME280;11751;42.700;24.170;2023-05-09T04:56:19;94320.13;;;12.80;nan
23166;BME280;11751;42.700;24.170;2023-05-09T05:01:09;94325.34;;;12.99;nan
23166;BME280;11751;42.700;24.170;2023-05-09T05:03:35;94322.88;;;13.10;nan
23166;BME280;11751;42.700;24.170;2023-05-09T05:06:00;94321.47;;;13.26;nan
23166;BME280;11751;42.700;24.170;2023-05-09T05:10:51;94328.06;;;13.61;nan
23166;BME280;11751;42.700;24.170;2023-05-09T05:13:16;94333.28;;;13.64;nan
23166;BME280;11751;42.700;24.170;2023-05-09T05:15:42;94333.75;;;13.77;nan
23166;BME280;11751;42.700;24.170;2023-05-09T05:18:07;94318.50;;;13.88;nan
23166;BME280;11751;42.700;24.170;2023-05-09T05:20:33;94325.50;;;14.11;nan
23166;BME280;11751;42.700;24.170;2023-05-09T05:22:59;94330.66;;;14.22;nan
23166;BME280;11751;42.700;24.170;2023-05-09T05:25:25;94336.63;;;14.26;nan
23166;BME280;11751;42.700;24.170;2023-05-09T05:27:50;94327.50;;;14.18;nan
23166;BME280;11751;42.700;24.170;2023-05-09T05:30:16;94327.91;;;14.07;nan
23166;BME280;11751;42.700;24.170;2023-05-09T05:32:41;94326.53;;;14.23;nan
23166;BME280;11751;42.700;24.170;2023-05-09T05:35:08;94321.69;;;14.16;nan
23166;BME280;11751;42.700;24.170;2023-05-09T05:37:39;94319.72;;;14.26;nan
23166;BME280;11751;42.700;24.170;2023-05-09T05:40:05;94318.72;;;14.14;nan
23166;BME280;11751;42.700;24.170;2023-05-09T05:42:31;94316.22;;;14.18;nan
23166;BME280;11751;42.700;24.170;2023-05-09T05:44:56;94317.44;;;14.32;nan
23166;BME280;11751;42.700;24.170;2023-05-09T05:47:22;94321.75;;;14.33;nan
23166;BME280;11751;42.700;24.170;2023-05-09T05:49:47;94324.38;;;14.07;nan
23166;BME280;11751;42.700;24.170;2023-05-09T05:52:13;94329.25;;;14.06;nan
23166;BME280;11751;42.700;24.170;2023-05-09T05:54:39;94330.00;;;14.14;nan
23166;BME280;11751;42.700;24.170;2023-05-09T05:57:04;94328.50;;;14.13;nan
23166;BME280;11751;42.700;24.170;2023-05-09T05:59:29;94337.81;;;14.23;nan
23166;BME280;11751;42.700;24.170;2023-05-09T06:01:55;94339.38;;;14.09;nan
23166;BME280;11751;42.700;24.170;2023-05-09T06:04:20;94334.88;;;14.06;nan
23166;BME280;11751;42.700;24.170;2023-05-09T06:06:45;94340.09;;;14.10;nan
23166;BME280;11751;42.700;24.170;2023-05-09T06:09:11;94345.63;;;14.00;nan
23166;BME280;11751;42.700;24.170;2023-05-09T06:11:36;94343.03;;;13.95;nan
23166;BME280;11751;42.700;24.170;2023-05-09T06:14:03;94346.31;;;14.08;nan
23166;BME280;11751;42.700;24.170;2023-05-09T06:16:28;94334.13;;;14.06;nan
23166;BME280;11751;42.700;24.170;2023-05-09T06:18:54;94338.69;;;14.01;nan
23166;BME280;11751;42.700;24.170;2023-05-09T06:21:19;94334.53;;;14.02;nan
23166;BME280;11751;42.700;24.170;2023-05-09T06:23:45;94342.13;;;13.92;nan
23166;BME280;11751;42.700;24.170;2023-05-09T06:26:10;94341.72;;;13.96;nan
23166;BME280;11751;42.700;24.170;2023-05-09T06:28:36;94333.50;;;13.90;nan
23166;BME280;11751;42.700;24.170;2023-05-09T06:31:01;94333.03;;;14.01;nan
23166;BME280;11751;42.700;24.170;2023-05-09T06:33:27;94337.34;;;14.02;nan
23166;BME280;11751;42.700;24.170;2023-05-09T06:35:52;94345.63;;;14.00;nan
23166;BME280;11751;42.700;24.170;2023-05-09T06:38:18;94341.81;;;14.13;nan
23166;BME280;11751;42.700;24.170;2023-05-09T06:40:43;94343.13;;;14.12;nan
23166;BME280;11751;42.700;24.170;2023-05-09T06:43:08;94333.97;;;14.28;nan
23166;BME280;11751;42.700;24.170;2023-05-09T06:45:34;94336.97;;;14.30;nan
23166;BME280;11751;42.700;24.170;2023-05-09T06:48:00;94330.75;;;14.07;nan
23166;BME280;11751;42.700;24.170;2023-05-09T06:50:25;94337.09;;;14.15;nan
23166;BME280;11751;42.700;24.170;2023-05-09T06:52:50;94335.91;;;14.26;nan
23166;BME280;11751;42.700;24.170;2023-05-09T06:55:16;94340.75;;;14.25;nan
23166;BME280;11751;42.700;24.170;2023-05-09T06:57:41;94333.53;;;14.39;nan
23166;BME280;11751;42.700;24.170;2023-05-09T07:00:07;94332.31;;;14.25;nan
23166;BME280;11751;42.700;24.170;2023-05-09T07:02:33;94329.03;;;14.36;nan
23166;BME280;11751;42.700;24.170;2023-05-09T07:04:59;94331.97;;;14.46;nan
23166;BME280;11751;42.700;24.170;2023-05-09T07:07:24;94340.47;;;14.38;nan
23166;BME280;11751;42.700;24.170;2023-05-09T07:09:50;94335.13;;;14.25;nan
23166;BME280;11751;42.700;24.170;2023-05-09T07:12:15;94344.31;;;14.50;nan
23166;BME280;11751;42.700;24.170;2023-05-09T07:14:41;94335.69;;;14.48;nan
23166;BME280;11751;42.700;24.170;2023-05-09T07:17:06;94339.16;;;14.39;nan
23166;BME280;11751;42.700;24.170;2023-05-09T07:19:33;94341.63;;;14.35;nan
23166;BME280;11751;42.700;24.170;2023-05-09T07:21:58;94344.97;;;14.41;nan
23166;BME280;11751;42.700;24.170;2023-05-09T07:24:24;94337.88;;;14.57;nan
23166;BME280;11751;42.700;24.170;2023-05-09T07:26:49;94339.72;;;14.62;nan
23166;BME280;11751;42.700;24.170;2023-05-09T07:29:14;94337.03;;;14.64;nan
23166;BME280;11751;42.700;24.170;2023-05-09T07:31:41;94336.97;;;14.54;nan
23166;BME280;11751;42.700;24.170;2023-05-09T07:34:07;94342.66;;;14.47;nan
23166;BME280;11751;42.700;24.170;2023-05-09T07:36:32;94336.47;;;14.49;nan
23166;BME280;11751;42.700;24.170;2023-05-09T07:38:58;94340.31;;;14.77;nan
23166;BME280;11751;42.700;24.170;2023-05-09T07:41:24;94338.47;;;14.72;nan
23166;BME280;11751;42.700;24.170;2023-05-09T07:43:50;94340.81;;;15.00;nan
23166;BME280;11751;42.700;24.170;2023-05-09T07:46:16;94330.94;;;15.09;nan
23166;BME280;11751;42.700;24.170;2023-05-09T07:48:41;94334.28;;;15.32;nan
23166;BME280;11751;42.700;24.170;2023-05-09T07:51:07;94324.63;;;15.35;nan
23166;BME280;11751;42.700;24.170;2023-05-09T07:53:33;94331.84;;;15.45;nan
23166;BME280;11751;42.700;24.170;2023-05-09T07:55:58;94332.44;;;15.43;nan
23166;BME280;11751;42.700;24.170;2023-05-09T07:58:24;94329.91;;;15.64;nan
23166;BME280;11751;42.700;24.170;2023-05-09T08:00:49;94336.69;;;15.78;nan
23166;BME280;11751;42.700;24.170;2023-05-09T08:03:14;94333.97;;;15.97;nan
23166;BME280;11751;42.700;24.170;2023-05-09T08:05:40;94342.97;;;16.13;nan
23166;BME280;11751;42.700;24.170;2023-05-09T08:08:05;94343.22;;;16.07;nan
23166;BME280;11751;42.700;24.170;2023-05-09T08:10:32;94343.41;;;15.83;nan
23166;BME280;11751;42.700;24.170;2023-05-09T08:12:58;94347.13;;;15.85;nan
23166;BME280;11751;42.700;24.170;2023-05-09T08:15:23;94343.66;;;15.77;nan
23166;BME280;11751;42.700;24.170;2023-05-09T08:17:48;94340.13;;;15.60;nan
23166;BME280;11751;42.700;24.170;2023-05-09T08:20:14;94341.31;;;15.83;nan
23166;BME280;11751;42.700;24.170;2023-05-09T08:22:42;94342.03;;;15.57;nan
23166;BME280;11751;42.700;24.170;2023-05-09T08:25:08;94339.13;;;15.48;nan
23166;BME280;11751;42.700;24.170;2023-05-09T08:27:33;94337.81;;;15.66;nan
23166;BME280;11751;42.700;24.170;2023-05-09T08:29:59;94344.88;;;15.57;nan
23166;BME280;11751;42.700;24.170;2023-05-09T08:32:24;94349.41;;;15.70;nan
23166;BME280;11751;42.700;24.170;2023-05-09T08:34:50;94343.72;;;15.43;nan
23166;BME280;11751;42.700;24.170;2023-05-09T08:37:16;94352.34;;;15.45;nan
23166;BME280;11751;42.700;24.170;2023-05-09T08:39:41;94348.06;;;15.28;nan
23166;BME280;11751;42.700;24.170;2023-05-09T08:42:08;94345.88;;;15.36;nan
23166;BME280;11751;42.700;24.170;2023-05-09T08:44:34;94340.41;;;15.38;nan
23166;BME280;11751;42.700;24.170;2023-05-09T08:47:01;94344.13;;;15.40;nan
23166;BME280;11751;42.700;24.170;2023-05-09T08:49:27;94339.94;;;15.32;nan
23166;BME280;11751;42.700;24.170;2023-05-09T08:51:54;94343.41;;;15.40;nan
23166;BME280;11751;42.700;24.170;2023-05-09T08:54:20;94340.88;;;15.60;nan
23166;BME280;11751;42.700;24.170;2023-05-09T08:56:46;94341.19;;;15.64;nan
23166;BME280;11751;42.700;24.170;2023-05-09T08:59:12;94350.16;;;15.27;nan
23166;BME280;11751;42.700;24.170;2023-05-09T09:01:39;94343.91;;;15.29;nan
23166;BME280;11751;42.700;24.170;2023-05-09T09:04:06;94335.75;;;15.49;nan
23166;BME280;11751;42.700;24.170;2023-05-09T09:06:33;94338.50;;;15.40;nan
23166;BME280;11751;42.700;24.170;2023-05-09T09:08:59;94336.09;;;15.37;nan
23166;BME280;11751;42.700;24.170;2023-05-09T09:11:25;94335.03;;;15.32;nan
23166;BME280;11751;42.700;24.170;2023-05-09T09:13:53;94339.09;;;15.22;nan
23166;BME280;11751;42.700;24.170;2023-05-09T09:16:20;94335.00;;;15.15;nan
23166;BME280;11751;42.700;24.170;2023-05-09T09:18:47;94334.13;;;15.30;nan
23166;BME280;11751;42.700;24.170;2023-05-09T09:21:15;94339.09;;;15.22;nan
23166;BME280;11751;42.700;24.170;2023-05-09T09:23:44;94337.09;;;15.32;nan
23166;BME280;11751;42.700;24.170;2023-05-09T09:26:11;94343.91;;;15.29;nan
23166;BME280;11751;42.700;24.170;2023-05-09T09:28:37;94340.91;;;15.27;nan
23166;BME280;11751;42.700;24.170;2023-05-09T09:31:21;94345.22;;;15.28;nan
23166;BME280;11751;42.700;24.170;2023-05-09T09:33:47;94343.81;;;15.02;nan
23166;BME280;11751;42.700;24.170;2023-05-09T09:36:12;94346.13;;;15.30;nan
23166;BME280;11751;42.700;24.170;2023-05-09T09:38:41;94338.56;;;15.33;nan
23166;BME280;11751;42.700;24.170;2023-05-09T09:41:11;94342.22;;;15.42;nan
23166;BME280;11751;42.700;24.170;2023-05-09T09:43:36;94340.22;;;15.19;nan
23166;BME280;11751;42.700;24.170;2023-05-09T09:46:03;94344.22;;;15.33;nan
23166;BME280;11751;42.700;24.170;2023-05-09T09:48:33;94336.72;;;14.94;nan
23166;BME280;11751;42.700;24.170;2023-05-09T09:51:07;94340.63;;;14.98;nan
23166;BME280;11751;42.700;24.170;2023-05-09T09:53:38;94334.56;;;14.85;nan
23166;BME280;11751;42.700;24.170;2023-05-09T09:56:04;94337.38;;;14.68;nan
23166;BME280;11751;42.700;24.170;2023-05-09T09:58:29;94353.94;;;14.64;nan
23166;BME280;11751;42.700;24.170;2023-05-09T10:01:08;94359.72;;;14.49;nan
23166;BME280;11751;42.700;24.170;2023-05-09T10:03:41;94358.03;;;14.29;nan
23166;BME280;11751;42.700;24.170;2023-05-09T10:06:11;94360.44;;;14.33;nan
23166;BME280;11751;42.700;24.170;2023-05-09T10:08:36;94352.66;;;14.41;nan
23166;BME280;11751;42.700;24.170;2023-05-09T10:11:02;94356.66;;;14.06;nan
23166;BME280;11751;42.700;24.170;2023-05-09T10:13:28;94350.63;;;14.09;nan
23166;BME280;11751;42.700;24.170;2023-05-09T10:15:55;94354.88;;;13.93;nan
23166;BME280;11751;42.700;24.170;2023-05-09T10:18:28;94351.53;;;13.87;nan
23166;BME280;11751;42.700;24.170;2023-05-09T10:20:55;94353.13;;;13.73;nan
23166;BME280;11751;42.700;24.170;2023-05-09T10:23:22;94365.94;;;13.60;nan
23166;BME280;11751;42.700;24.170;2023-05-09T10:25:54;94351.34;;;13.54;nan
23166;BME280;11751;42.700;24.170;2023-05-09T10:28:27;94357.03;;;13.39;nan
23166;BME280;11751;42.700;24.170;2023-05-09T10:31:22;94367.81;;;13.65;nan
23166;BME280;11751;42.700;24.170;2023-05-09T10:33:49;94353.38;;;13.61;nan
23166;BME280;11751;42.700;24.170;2023-05-09T10:36:19;94348.41;;;13.44;nan
23166;BME280;11751;42.700;24.170;2023-05-09T10:38:49;94354.81;;;13.37;nan
23166;BME280;11751;42.700;24.170;2023-05-09T10:41:16;94355.91;;;13.42;nan
23166;BME280;11751;42.700;24.170;2023-05-09T10:43:44;94350.00;;;13.23;nan
23166;BME280;11751;42.700;24.170;2023-05-09T10:46:11;94355.97;;;13.27;nan
23166;BME280;11751;42.700;24.170;2023-05-09T10:48:37;94354.41;;;13.41;nan
23166;BME280;11751;42.700;24.170;2023-05-09T10:51:04;94354.84;;;13.30;nan
23166;BME280;11751;42.700;24.170;2023-05-09T10:53:47;94357.22;;;13.41;nan
23166;BME280;11751;42.700;24.170;2023-05-09T10:56:30;94349.59;;;13.34;nan
23166;BME280;11751;42.700;24.170;2023-05-09T10:58:56;94357.84;;;13.32;nan
23166;BME280;11751;42.700;24.170;2023-05-09T11:01:38;94364.63;;;13.21;nan
23166;BME280;11751;42.700;24.170;2023-05-09T11:04:12;94362.94;;;13.18;nan
23166;BME280;11751;42.700;24.170;2023-05-09T11:06:48;94367.59;;;13.23;nan
23166;BME280;11751;42.700;24.170;2023-05-09T11:11:52;94362.19;;;13.18;nan
23166;BME280;11751;42.700;24.170;2023-05-09T11:17:03;94356.53;;;13.33;nan
23166;BME280;11751;42.700;24.170;2023-05-09T11:22:15;94354.78;;;13.45;nan
23166;BME280;11751;42.700;24.170;2023-05-09T11:24:46;94361.13;;;13.53;nan
23166;BME280;11751;42.700;24.170;2023-05-09T11:27:15;94364.38;;;13.73;nan
23166;BME280;11751;42.700;24.170;2023-05-09T11:30:11;94369.09;;;13.95;nan
23166;BME280;11751;42.700;24.170;2023-05-09T11:32:51;94360.94;;;13.82;nan
23166;BME280;11751;42.700;24.170;2023-05-09T11:35:19;94359.63;;;13.83;nan
23166;BME280;11751;42.700;24.170;2023-05-09T11:37:52;94362.09;;;13.79;nan
23166;BME280;11751;42.700;24.170;2023-05-09T11:40:20;94365.59;;;13.87;nan
23166;BME280;11751;42.700;24.170;2023-05-09T11:42:50;94359.34;;;13.96;nan
23166;BME280;11751;42.700;24.170;2023-05-09T11:45:20;94362.34;;;13.98;nan
23166;BME280;11751;42.700;24.170;2023-05-09T11:47:46;94360.63;;;13.71;nan
23166;BME280;11751;42.700;24.170;2023-05-09T11:50:13;94350.97;;;13.57;nan
23166;BME280;11751;42.700;24.170;2023-05-09T11:52:39;94356.84;;;13.76;nan
23166;BME280;11751;42.700;24.170;2023-05-09T11:55:10;94359.09;;;13.77;nan
23166;BME280;11751;42.700;24.170;2023-05-09T11:57:44;94359.88;;;13.70;nan
23166;BME280;11751;42.700;24.170;2023-05-09T12:00:10;94348.53;;;13.85;nan
23166;BME280;11751;42.700;24.170;2023-05-09T12:02:36;94354.84;;;13.69;nan
23166;BME280;11751;42.700;24.170;2023-05-09T12:05:21;94341.09;;;13.73;nan
23166;BME280;11751;42.700;24.170;2023-05-09T12:07:47;94354.63;;;13.74;nan
23166;BME280;11751;42.700;24.170;2023-05-09T12:10:15;94351.19;;;13.83;nan
23166;BME280;11751;42.700;24.170;2023-05-09T12:12:43;94348.00;;;13.79;nan
23166;BME280;11751;42.700;24.170;2023-05-09T12:15:09;94345.56;;;13.83;nan
23166;BME280;11751;42.700;24.170;2023-05-09T12:17:35;94349.88;;;13.84;nan
23166;BME280;11751;42.700;24.170;2023-05-09T12:20:01;94340.38;;;13.72;nan
23166;BME280;11751;42.700;24.170;2023-05-09T12:22:28;94336.78;;;13.72;nan
23166;BME280;11751;42.700;24.170;2023-05-09T12:24:55;94335.06;;;13.76;nan
23166;BME280;11751;42.700;24.170;2023-05-09T12:27:20;94342.31;;;13.63;nan
23166;BME280;11751;42.700;24.170;2023-05-09T12:29:46;94335.34;;;13.32;nan
23166;BME280;11751;42.700;24.170;2023-05-09T12:32:15;94339.03;;;13.42;nan
23166;BME280;11751;42.700;24.170;2023-05-09T12:34:41;94334.66;;;13.16;nan
23166;BME280;11751;42.700;24.170;2023-05-09T12:37:14;94337.88;;;12.98;nan
23166;BME280;11751;42.700;24.170;2023-05-09T12:39:41;94326.22;;;13.09;nan
23166;BME280;11751;42.700;24.170;2023-05-09T12:42:12;94333.47;;;13.27;nan
23166;BME280;11751;42.700;24.170;2023-05-09T12:44:38;94326.81;;;13.00;nan
23166;BME280;11751;42.700;24.170;2023-05-09T12:47:04;94330.66;;;13.27;nan
23166;BME280;11751;42.700;24.170;2023-05-09T12:49:30;94326.41;;;13.11;nan
23166;BME280;11751;42.700;24.170;2023-05-09T12:51:59;94331.81;;;13.24;nan
23166;BME280;11751;42.700;24.170;2023-05-09T12:54:28;94332.00;;;13.26;nan
23166;BME280;11751;42.700;24.170;2023-05-09T12:56:55;94324.78;;;13.40;nan
23166;BME280;11751;42.700;24.170;2023-05-09T12:59:23;94324.78;;;13.40;nan
23166;BME280;11751;42.700;24.170;2023-05-09T13:01:57;94322.16;;;13.42;nan
23166;BME280;11751;42.700;24.170;2023-05-09T13:04:25;94323.28;;;13.39;nan
23166;BME280;11751;42.700;24.170;2023-05-09T13:06:57;94325.66;;;13.50;nan
23166;BME280;11751;42.700;24.170;2023-05-09T13:09:25;94325.16;;;13.44;nan
23166;BME280;11751;42.700;24.170;2023-05-09T13:11:52;94319.94;;;13.40;nan
23166;BME280;11751;42.700;24.170;2023-05-09T13:14:19;94319.28;;;13.17;nan
23166;BME280;11751;42.700;24.170;2023-05-09T13:16:45;94319.53;;;13.44;nan
23166;BME280;11751;42.700;24.170;2023-05-09T13:19:11;94316.97;;;13.31;nan
23166;BME280;11751;42.700;24.170;2023-05-09T13:21:37;94311.38;;;13.23;nan
23166;BME280;11751;42.700;24.170;2023-05-09T13:24:03;94317.47;;;13.05;nan
23166;BME280;11751;42.700;24.170;2023-05-09T13:26:29;94311.44;;;13.08;nan
23166;BME280;11751;42.700;24.170;2023-05-09T13:28:55;94319.72;;;12.99;nan
23166;BME280;11751;42.700;24.170;2023-05-09T13:31:21;94312.97;;;13.02;nan
23166;BME280;11751;42.700;24.170;2023-05-09T13:33:47;94312.34;;;13.11;nan
23166;BME280;11751;42.700;24.170;2023-05-09T13:36:13;94316.59;;;13.27;nan
23166;BME280;11751;42.700;24.170;2023-05-09T13:38:38;94311.63;;;13.42;nan
23166;BME280;11751;42.700;24.170;2023-05-09T13:41:08;94310.63;;;13.23;nan
23166;BME280;11751;42.700;24.170;2023-05-09T13:43:34;94312.53;;;13.20;nan
23166;BME280;11751;42.700;24.170;2023-05-09T13:46:00;94303.94;;;13.03;nan
23166;BME280;11751;42.700;24.170;2023-05-09T13:48:26;94308.41;;;13.14;nan
23166;BME280;11751;42.700;24.170;2023-05-09T13:50:51;94305.00;;;13.23;nan
23166;BME280;11751;42.700;24.170;2023-05-09T13:53:17;94311.41;;;13.16;nan
23166;BME280;11751;42.700;24.170;2023-05-09T13:55:43;94312.00;;;13.07;nan
23166;BME280;11751;42.700;24.170;2023-05-09T13:58:10;94307.22;;;13.24;nan
23166;BME280;11751;42.700;24.170;2023-05-09T14:00:35;94300.50;;;13.20;nan
23166;BME280;11751;42.700;24.170;2023-05-09T14:03:01;94303.13;;;13.25;nan